Time;durP1;ratioP1;P1;durP2;ratioP2;P2;SDS_P1;SDS_P2;PMS_P1;PMS_P2;Temp;Humidity;BMP_temperature;BMP_pressure;BME280_temperature;BME280_humidity;BME280_pressure;Samples;Min_cycle;Max_cycle;Signal;HPM_P1;HPM_P2
2022/12/23 00:00:24;;;;;;;2.75;1.20;;;10.60;99.90;;;;;;6256651;28;20045;-80
2022/12/23 00:03:27;;;;;;;7.15;1.90;;;10.70;99.90;;;;;;6256830;28;20045;-80
2022/12/23 00:06:28;;;;;;;4.15;1.38;;;10.70;99.90;;;;;;6255492;28;20503;-80
2022/12/23 00:09:31;;;;;;;2.53;1.20;;;10.70;99.90;;;;;;6259287;28;20045;-79
2022/12/23 00:16:01;;;;;;;2.80;1.25;;;10.80;99.90;;;;;;6255432;28;20073;-81
2022/12/23 00:19:03;;;;;;;3.65;1.30;;;10.80;99.90;;;;;;6254345;28;20041;-81
2022/12/23 00:22:04;;;;;;;1.20;1.10;;;10.90;99.90;;;;;;6254027;28;20056;-82
2022/12/23 00:25:08;;;;;;;4.20;1.25;;;10.90;99.90;;;;;;6257175;28;20045;-82
2022/12/23 00:28:11;;;;;;;11.27;4.20;;;10.90;99.90;;;;;;6253035;28;20499;-81
2022/12/23 00:31:13;;;;;;;12.32;3.13;;;11.00;99.90;;;;;;6255307;28;20049;-82
2022/12/23 00:34:16;;;;;;;6.60;1.00;;;11.00;99.90;;;;;;6230973;28;20419;-82
2022/12/23 00:37:17;;;;;;;5.65;1.27;;;11.00;99.90;;;;;;6230657;28;20050;-81
2022/12/23 00:43:40;;;;;;;1.10;0.70;;;11.10;99.90;;;;;;6231094;28;20496;-81
2022/12/23 00:46:41;;;;;;;4.53;1.23;;;11.20;99.90;;;;;;6245896;28;20045;-82
2022/12/23 00:49:42;;;;;;;2.03;0.90;;;11.20;99.90;;;;;;6255055;28;20056;-82
2022/12/23 00:52:44;;;;;;;2.10;1.05;;;11.20;99.90;;;;;;6255569;28;20053;-82
2022/12/23 00:55:47;;;;;;;5.65;0.95;;;11.30;99.90;;;;;;6255226;28;20053;-82
2022/12/23 00:58:49;;;;;;;2.40;0.60;;;11.40;99.90;;;;;;6255125;28;20080;-82
2022/12/23 01:08:29;;;;;;;3.08;0.90;;;11.50;99.90;;;;;;6254168;28;20499;-82
2022/12/23 01:11:33;;;;;;;3.50;0.90;;;11.50;99.90;;;;;;6257684;28;20049;-81
2022/12/23 01:14:34;;;;;;;0.65;0.65;;;11.50;99.90;;;;;;6263690;28;20415;-81
2022/12/23 01:17:36;;;;;;;6.88;2.80;;;11.60;99.90;;;;;;6261997;28;20060;-81
2022/12/23 01:20:38;;;;;;;1.02;0.60;;;11.60;99.90;;;;;;6253899;28;20049;-80
2022/12/23 01:23:40;;;;;;;0.68;0.55;;;11.60;99.90;;;;;;6252610;28;20088;-81
2022/12/23 01:26:43;;;;;;;1.85;0.60;;;11.60;99.90;;;;;;6252507;28;20046;-81
2022/12/23 01:29:45;;;;;;;3.63;0.90;;;11.60;99.90;;;;;;6251481;28;20069;-81
2022/12/23 01:32:48;;;;;;;1.40;0.47;;;11.70;99.90;;;;;;6252617;28;20041;-80
2022/12/23 01:35:49;;;;;;;5.28;1.52;;;11.70;99.90;;;;;;6260211;28;20045;-81
2022/12/23 01:38:51;;;;;;;3.30;0.75;;;11.70;99.90;;;;;;6261845;28;20410;-80
2022/12/23 01:45:17;;;;;;;4.20;0.77;;;11.70;99.90;;;;;;6256713;28;20049;-81
2022/12/23 01:48:24;;;;;;;3.42;1.38;;;11.70;99.90;;;;;;6258761;28;20053;-81
2022/12/23 01:51:29;;;;;;;0.65;0.52;;;11.70;99.90;;;;;;6256362;28;20069;-81
2022/12/23 01:54:31;;;;;;;2.90;0.60;;;11.80;99.90;;;;;;6255427;28;20057;-81
2022/12/23 01:57:38;;;;;;;1.35;1.25;;;11.80;99.90;;;;;;6254418;28;20050;-82
2022/12/23 02:04:04;;;;;;;2.03;0.60;;;11.90;99.90;;;;;;6255866;28;20041;-83
2022/12/23 02:10:35;;;;;;;4.28;0.75;;;12.00;99.90;;;;;;6255693;28;20037;-81
2022/12/23 02:16:15;;;;;;;0.70;0.70;;;12.00;99.90;;;;;;6256248;28;20060;-80
2022/12/23 02:17:17;;;;;;;0.68;0.60;;;12.00;99.90;;;;;;6257484;28;20795;-81
2022/12/23 02:20:38;;;;;;;0.80;0.70;;;12.10;99.90;;;;;;6258220;28;20614;-80
2022/12/23 02:24:05;;;;;;;1.05;0.75;;;12.10;99.90;;;;;;6256947;28;20057;-81
2022/12/23 02:27:11;;;;;;;1.10;0.52;;;12.10;99.90;;;;;;6256628;28;20053;-80
2022/12/23 02:30:34;;;;;;;1.25;0.50;;;12.10;99.90;;;;;;6254927;28;20050;-80
2022/12/23 02:33:45;;;;;;;3.28;0.80;;;12.10;99.90;;;;;;6256449;28;20049;-80
2022/12/23 02:36:53;;;;;;;1.65;0.50;;;12.00;99.90;;;;;;6256791;28;20053;-80
2022/12/23 02:40:00;;;;;;;0.57;0.50;;;12.00;99.90;;;;;;6255721;28;20072;-80
2022/12/23 02:43:06;;;;;;;4.78;0.73;;;12.00;99.90;;;;;;6257967;28;20052;-80
2022/12/23 02:46:13;;;;;;;1.10;0.47;;;12.00;99.90;;;;;;6257250;28;20045;-80
2022/12/23 02:49:20;;;;;;;1.85;0.88;;;12.00;99.90;;;;;;6257343;28;20415;-80
2022/12/23 02:52:26;;;;;;;1.55;0.50;;;12.00;99.90;;;;;;6256470;28;20049;-80
2022/12/23 02:55:32;;;;;;;2.72;0.68;;;12.00;99.90;;;;;;6253152;28;20037;-79
2022/12/23 02:58:39;;;;;;;3.30;0.80;;;12.00;99.90;;;;;;6249670;28;20103;-80
2022/12/23 03:01:44;;;;;;;1.85;0.75;;;12.00;99.90;;;;;;6250149;28;20412;-79
2022/12/23 03:04:46;;;;;;;0.45;0.40;;;12.00;99.90;;;;;;6249713;28;20052;-79
2022/12/23 03:07:47;;;;;;;2.42;0.80;;;12.00;99.90;;;;;;6248565;28;20041;-79
2022/12/23 03:11:03;;;;;;;0.90;0.50;;;12.00;99.90;;;;;;6249341;28;20056;-79
2022/12/23 03:14:20;;;;;;;0.95;0.52;;;12.00;99.90;;;;;;6250018;28;20049;-79
2022/12/23 03:17:41;;;;;;;1.33;0.95;;;12.00;99.90;;;;;;6249549;28;20049;-79
2022/12/23 03:20:49;;;;;;;1.23;0.70;;;12.00;99.90;;;;;;6250407;28;20045;-79
2022/12/23 03:23:55;;;;;;;0.63;0.63;;;12.00;99.90;;;;;;6250213;28;20064;-79
2022/12/23 03:27:03;;;;;;;2.42;0.70;;;12.10;99.90;;;;;;6251489;28;20045;-79
2022/12/23 03:30:07;;;;;;;0.57;0.57;;;12.10;99.90;;;;;;6249184;28;20041;-79
2022/12/23 03:33:15;;;;;;;1.88;0.90;;;12.10;99.90;;;;;;6248140;28;20049;-79
2022/12/23 03:36:23;;;;;;;2.30;0.50;;;12.10;99.90;;;;;;6251020;28;20057;-79
2022/12/23 03:39:31;;;;;;;1.23;0.80;;;12.20;99.90;;;;;;6249880;28;20041;-79
2022/12/23 03:42:36;;;;;;;2.58;0.80;;;12.20;99.90;;;;;;6251567;28;20053;-80
2022/12/23 03:45:43;;;;;;;1.30;0.82;;;12.20;99.90;;;;;;6252497;28;20044;-79
2022/12/23 03:48:50;;;;;;;0.93;0.93;;;12.20;99.90;;;;;;6250785;28;20045;-79
2022/12/23 03:51:57;;;;;;;2.03;0.60;;;12.20;99.90;;;;;;6251214;28;20053;-80
2022/12/23 03:55:01;;;;;;;0.75;0.75;;;12.20;99.90;;;;;;6251318;28;20045;-79
2022/12/23 03:58:10;;;;;;;0.80;0.80;;;12.20;99.90;;;;;;6250442;28;20041;-80
2022/12/23 04:01:19;;;;;;;1.75;0.85;;;12.30;99.90;;;;;;6252750;28;20292;-79
2022/12/23 04:04:27;;;;;;;0.65;0.65;;;12.30;99.90;;;;;;6251743;28;20428;-80
2022/12/23 04:07:33;;;;;;;3.10;0.90;;;12.30;99.90;;;;;;6251698;28;20053;-81
2022/12/23 04:10:35;;;;;;;0.75;0.75;;;12.30;99.90;;;;;;6251151;28;20056;-80
2022/12/23 04:13:37;;;;;;;4.70;1.00;;;12.30;99.90;;;;;;6250818;28;20050;-80
2022/12/23 04:16:38;;;;;;;0.65;0.60;;;12.40;99.90;;;;;;6249205;28;20500;-80
2022/12/23 04:19:44;;;;;;;2.03;1.13;;;12.40;99.90;;;;;;6247863;28;20053;-79
2022/12/23 04:22:45;;;;;;;0.88;0.70;;;12.40;99.90;;;;;;6249103;28;20049;-80
2022/12/23 04:25:47;;;;;;;1.40;1.10;;;12.40;99.90;;;;;;6249405;28;20052;-80
2022/12/23 04:28:49;;;;;;;1.83;1.20;;;12.40;99.90;;;;;;6246873;28;20049;-80
2022/12/23 04:31:50;;;;;;;0.70;0.70;;;12.40;99.90;;;;;;6245979;28;20053;-79
2022/12/23 04:34:53;;;;;;;0.70;0.70;;;12.40;99.90;;;;;;6250816;28;20053;-79
2022/12/23 04:37:55;;;;;;;1.55;0.75;;;12.40;99.90;;;;;;6252293;28;20041;-80
2022/12/23 04:40:57;;;;;;;2.45;2.13;;;12.40;99.90;;;;;;6251631;28;20050;-79
2022/12/23 04:43:58;;;;;;;4.22;1.13;;;12.40;99.90;;;;;;6251850;28;20444;-79
2022/12/23 04:47:00;;;;;;;2.03;0.70;;;12.40;99.90;;;;;;6251646;28;20053;-78
2022/12/23 04:50:03;;;;;;;0.90;0.60;;;12.40;99.90;;;;;;6250741;28;20064;-80
2022/12/23 04:53:05;;;;;;;3.67;0.50;;;12.40;99.90;;;;;;6251544;28;20573;-79
2022/12/23 04:56:07;;;;;;;2.50;0.75;;;12.40;99.90;;;;;;6250408;28;20038;-79
2022/12/23 04:59:10;;;;;;;0.43;0.43;;;12.40;99.90;;;;;;6249628;28;20049;-78
2022/12/23 05:02:12;;;;;;;0.60;0.60;;;12.40;99.90;;;;;;6250411;28;20689;-79
2022/12/23 05:05:15;;;;;;;1.70;0.85;;;12.40;99.90;;;;;;6252931;28;20045;-78
2022/12/23 05:08:17;;;;;;;0.50;0.50;;;12.40;99.90;;;;;;6249529;28;20045;-79
2022/12/23 05:11:18;;;;;;;0.55;0.55;;;12.40;99.90;;;;;;6250347;28;20391;-79
2022/12/23 05:14:20;;;;;;;5.82;0.85;;;12.40;99.90;;;;;;6250470;28;20046;-79
2022/12/23 05:17:22;;;;;;;4.30;1.25;;;12.40;99.90;;;;;;6250288;28;20097;-79
2022/12/23 05:20:25;;;;;;;0.60;0.60;;;12.40;99.90;;;;;;6250585;28;20414;-79
2022/12/23 05:23:27;;;;;;;0.70;0.70;;;12.40;99.90;;;;;;6251089;28;20423;-79
2022/12/23 05:26:28;;;;;;;1.40;0.50;;;12.40;99.90;;;;;;6250881;28;20050;-78
2022/12/23 05:29:30;;;;;;;0.80;0.77;;;12.40;99.90;;;;;;6251012;28;20434;-79
2022/12/23 05:32:32;;;;;;;1.20;1.10;;;12.40;99.90;;;;;;6249591;28;20053;-80
2022/12/23 05:35:35;;;;;;;0.80;0.80;;;12.40;99.90;;;;;;6249648;28;20041;-80
2022/12/23 05:38:36;;;;;;;2.65;0.50;;;12.40;99.90;;;;;;6248911;28;20041;-79
2022/12/23 05:41:38;;;;;;;1.73;0.73;;;12.40;99.90;;;;;;6249674;28;20045;-79
2022/12/23 05:44:40;;;;;;;0.73;0.73;;;12.40;99.90;;;;;;6249352;28;20041;-80
2022/12/23 05:47:41;;;;;;;0.38;0.38;;;12.40;99.90;;;;;;6248449;28;20616;-78
2022/12/23 05:50:44;;;;;;;1.20;0.80;;;12.40;99.90;;;;;;6249900;28;20041;-79
2022/12/23 05:53:46;;;;;;;2.25;0.60;;;12.40;99.90;;;;;;6249984;28;20052;-78
2022/12/23 05:56:48;;;;;;;1.00;0.80;;;12.40;99.90;;;;;;6249035;28;20037;-79
2022/12/23 05:59:50;;;;;;;0.98;0.88;;;12.40;99.90;;;;;;6248964;28;20046;-78
2022/12/23 06:02:51;;;;;;;0.93;0.77;;;12.40;99.90;;;;;;6249666;28;20056;-79
2022/12/23 06:05:54;;;;;;;20.20;3.17;;;12.40;99.90;;;;;;6250571;28;20058;-79
2022/12/23 06:08:58;;;;;;;2.03;1.02;;;12.40;99.90;;;;;;6248307;28;20055;-79
2022/12/23 06:12:00;;;;;;;1.75;0.80;;;12.40;99.90;;;;;;6249038;28;20057;-79
2022/12/23 06:15:02;;;;;;;1.58;0.73;;;12.40;99.90;;;;;;6250062;28;20045;-79
2022/12/23 06:18:04;;;;;;;0.50;0.50;;;12.40;99.90;;;;;;6253429;28;20081;-80
2022/12/23 06:21:07;;;;;;;2.08;0.70;;;12.40;99.90;;;;;;6252872;28;20511;-79
2022/12/23 06:24:09;;;;;;;3.65;0.75;;;12.40;99.90;;;;;;6252547;28;20077;-80
2022/12/23 06:27:11;;;;;;;0.45;0.45;;;12.40;99.90;;;;;;6254031;28;20045;-79
2022/12/23 06:30:14;;;;;;;2.42;0.88;;;12.40;99.90;;;;;;6252980;28;20060;-78
2022/12/23 06:33:15;;;;;;;1.70;1.17;;;12.40;99.90;;;;;;6248939;28;20053;-79
2022/12/23 06:36:18;;;;;;;11.70;1.27;;;12.40;99.90;;;;;;6248588;28;20045;-80
2022/12/23 06:39:20;;;;;;;1.40;1.30;;;12.50;99.90;;;;;;6248652;28;20045;-81
2022/12/23 06:42:22;;;;;;;2.13;1.40;;;12.50;99.90;;;;;;6249230;28;20041;-79
2022/12/23 06:45:23;;;;;;;2.15;1.52;;;12.50;99.90;;;;;;6248974;28;20053;-80
2022/12/23 06:48:25;;;;;;;2.22;1.00;;;12.50;99.90;;;;;;6248514;28;20052;-79
2022/12/23 06:51:28;;;;;;;3.50;1.42;;;12.60;99.90;;;;;;6248300;28;20052;-80
2022/12/23 06:54:30;;;;;;;1.52;0.73;;;12.50;99.90;;;;;;6248290;28;20049;-80
2022/12/23 06:57:31;;;;;;;1.30;0.75;;;12.50;99.90;;;;;;6247391;28;20049;-80
2022/12/23 07:00:33;;;;;;;6.22;1.20;;;12.50;99.90;;;;;;6249032;28;20049;-80
2022/12/23 07:03:35;;;;;;;2.38;1.10;;;12.50;99.90;;;;;;6248363;28;20056;-79
2022/12/23 07:06:39;;;;;;;1.50;1.40;;;12.50;99.90;;;;;;6248710;28;20037;-78
2022/12/23 07:09:40;;;;;;;4.30;1.00;;;12.50;99.90;;;;;;6247770;28;20107;-79
2022/12/23 07:12:42;;;;;;;0.93;0.88;;;12.40;99.90;;;;;;6248610;28;20049;-79
2022/12/23 07:15:43;;;;;;;1.27;0.70;;;12.40;99.90;;;;;;6248318;28;20052;-79
2022/12/23 07:18:45;;;;;;;1.77;0.90;;;12.40;99.90;;;;;;6247968;28;20056;-79
2022/12/23 07:21:48;;;;;;;3.85;0.98;;;12.40;99.90;;;;;;6248820;28;20049;-79
2022/12/23 07:24:50;;;;;;;0.70;0.70;;;12.40;99.90;;;;;;6247974;28;20045;-81
2022/12/23 07:27:53;;;;;;;3.15;1.40;;;12.40;99.90;;;;;;6246591;28;20061;-79
2022/12/23 07:30:55;;;;;;;3.88;1.38;;;12.40;99.90;;;;;;6247505;28;20045;-79
2022/12/23 07:33:57;;;;;;;1.45;1.10;;;12.40;99.90;;;;;;6246676;28;20056;-80
2022/12/23 07:37:00;;;;;;;5.30;3.30;;;12.30;99.90;;;;;;6248429;28;20041;-81
2022/12/23 07:40:02;;;;;;;2.53;2.33;;;12.30;99.90;;;;;;6246385;28;20426;-79
2022/12/23 07:43:04;;;;;;;3.08;1.27;;;12.30;99.90;;;;;;6247639;28;20422;-79
2022/12/23 07:46:07;;;;;;;3.40;1.60;;;12.30;99.90;;;;;;6247768;28;20480;-80
2022/12/23 07:49:08;;;;;;;2.88;1.38;;;12.30;99.90;;;;;;6247406;28;20053;-80
2022/12/23 07:52:11;;;;;;;3.25;1.20;;;12.30;99.90;;;;;;6197580;28;20053;-80
2022/12/23 07:55:13;;;;;;;3.72;1.55;;;12.30;99.90;;;;;;6248002;28;20041;-80
2022/12/23 07:58:15;;;;;;;3.88;1.80;;;12.30;99.90;;;;;;6239442;28;20517;-81
2022/12/23 08:01:18;;;;;;;1.70;1.30;;;12.30;99.90;;;;;;6244444;28;20049;-79
2022/12/23 08:04:19;;;;;;;3.33;1.08;;;12.30;99.90;;;;;;6251561;28;20045;-81
2022/12/23 08:07:22;;;;;;;3.35;1.63;;;12.30;99.90;;;;;;6245044;28;20053;-78
2022/12/23 08:10:24;;;;;;;2.22;1.48;;;12.30;99.90;;;;;;6251796;28;20067;-80
2022/12/23 08:13:26;;;;;;;1.98;1.77;;;12.30;99.90;;;;;;6253460;28;20080;-80
2022/12/23 08:16:28;;;;;;;4.30;1.60;;;12.20;99.90;;;;;;6251832;28;20053;-82
2022/12/23 08:19:29;;;;;;;1.30;1.20;;;12.20;99.90;;;;;;6251368;28;20046;-79
2022/12/23 08:22:32;;;;;;;3.90;1.40;;;12.20;99.90;;;;;;6251048;28;20056;-79
2022/12/23 08:25:34;;;;;;;1.30;1.00;;;12.20;99.90;;;;;;6251943;28;20495;-81
2022/12/23 08:28:37;;;;;;;1.90;1.10;;;12.30;99.90;;;;;;6250596;28;20048;-78
2022/12/23 08:31:38;;;;;;;4.90;3.72;;;12.20;99.90;;;;;;6252437;28;20045;-80
2022/12/23 08:34:40;;;;;;;4.63;1.83;;;12.30;99.90;;;;;;6250781;28;20049;-79
2022/12/23 08:37:43;;;;;;;8.55;1.30;;;12.30;99.90;;;;;;6250250;28;20071;-79
2022/12/23 08:40:45;;;;;;;2.03;1.00;;;12.30;99.90;;;;;;6251062;28;20045;-80
2022/12/23 08:43:47;;;;;;;6.88;1.45;;;12.20;99.90;;;;;;6250047;28;20400;-77
2022/12/23 08:46:48;;;;;;;3.97;1.23;;;12.20;99.90;;;;;;6250740;28;20507;-78
2022/12/23 08:49:50;;;;;;;3.20;2.05;;;12.20;99.90;;;;;;6250981;28;20060;-79
2022/12/23 08:52:53;;;;;;;4.25;2.40;;;12.20;99.90;;;;;;6250381;28;20060;-79
2022/12/23 08:55:55;;;;;;;2.90;1.65;;;12.20;99.90;;;;;;6250727;28;20411;-79
2022/12/23 08:58:57;;;;;;;1.80;1.30;;;12.20;99.90;;;;;;6249528;28;20077;-78
2022/12/23 09:02:00;;;;;;;4.28;2.17;;;12.20;99.90;;;;;;6252596;28;20046;-78
2022/12/23 09:05:02;;;;;;;4.38;1.75;;;12.20;99.90;;;;;;6250615;28;20049;-78
2022/12/23 09:08:09;;;;;;;2.72;2.08;;;12.20;99.90;;;;;;6249076;28;20152;-78
2022/12/23 09:11:11;;;;;;;4.43;2.35;;;12.20;99.90;;;;;;6248946;28;20061;-78
2022/12/23 09:14:13;;;;;;;1.60;1.42;;;12.20;99.90;;;;;;6249801;28;20057;-78
2022/12/23 09:17:16;;;;;;;1.23;1.13;;;12.30;99.90;;;;;;6249868;28;20049;-77
2022/12/23 09:20:18;;;;;;;3.58;1.52;;;12.30;99.90;;;;;;6268403;22;20049;-78
2022/12/23 09:23:21;;;;;;;3.25;1.70;;;12.30;99.90;;;;;;6250949;28;20061;-77
2022/12/23 09:26:24;;;;;;;1.70;1.60;;;12.40;99.90;;;;;;6251908;28;20482;-78
2022/12/23 09:29:26;;;;;;;4.00;2.40;;;12.40;99.90;;;;;;6251432;28;20053;-78
2022/12/23 09:32:28;;;;;;;4.80;2.38;;;12.50;99.90;;;;;;6251343;28;20053;-79
2022/12/23 09:35:29;;;;;;;5.53;1.95;;;12.50;99.90;;;;;;6251221;28;20042;-78
2022/12/23 09:38:33;;;;;;;5.30;3.08;;;12.50;99.90;;;;;;6244713;28;20053;-78
2022/12/23 09:42:00;;;;;;;4.53;2.40;;;12.50;99.90;;;;;;6254179;28;20049;-78
2022/12/23 09:45:18;;;;;;;1.63;1.42;;;12.60;99.90;;;;;;6250121;28;20525;-78
2022/12/23 09:48:24;;;;;;;3.20;1.35;;;12.60;99.90;;;;;;6249240;28;20046;-77
2022/12/23 09:51:27;;;;;;;1.40;1.27;;;12.60;99.90;;;;;;6249563;28;20049;-77
2022/12/23 09:54:36;;;;;;;1.27;1.17;;;12.60;99.90;;;;;;6249386;28;20498;-77
2022/12/23 09:57:48;;;;;;;1.83;1.33;;;12.60;99.90;;;;;;6248143;28;20056;-77
2022/12/23 10:01:02;;;;;;;2.10;1.58;;;12.60;99.90;;;;;;6248862;28;20068;-77
2022/12/23 10:04:36;;;;;;;56.60;30.90;;;12.70;99.90;;;;;;6247815;28;20057;-78
2022/12/23 10:07:44;;;;;;;4.38;2.35;;;12.70;99.90;;;;;;6247939;28;20065;-77
2022/12/23 10:10:51;;;;;;;19.77;17.90;;;12.70;99.90;;;;;;6249172;28;20053;-77
2022/12/23 10:13:57;;;;;;;2.63;1.75;;;12.70;99.90;;;;;;6248660;28;20045;-77
2022/12/23 10:17:07;;;;;;;1.33;1.20;;;12.80;99.90;;;;;;6249909;28;20061;-78
2022/12/23 10:20:17;;;;;;;4.65;1.77;;;12.80;99.90;;;;;;6250069;28;20052;-78
2022/12/23 10:23:27;;;;;;;4.22;2.53;;;12.90;99.90;;;;;;6251015;28;20105;-77
2022/12/23 10:26:37;;;;;;;2.40;1.17;;;12.90;99.90;;;;;;6250535;28;20414;-78
2022/12/23 10:29:40;;;;;;;2.05;1.65;;;12.80;99.90;;;;;;6249582;28;20072;-78
2022/12/23 10:32:53;;;;;;;6.10;5.60;;;12.90;99.90;;;;;;6250309;28;20391;-78
2022/12/23 10:36:05;;;;;;;2.50;1.83;;;12.90;99.90;;;;;;6251563;28;20046;-78
2022/12/23 10:39:13;;;;;;;2.08;1.52;;;12.90;99.90;;;;;;6249655;28;20042;-78
2022/12/23 10:42:24;;;;;;;1.70;1.13;;;12.90;99.90;;;;;;6251073;28;20050;-78
2022/12/23 10:45:39;;;;;;;4.13;1.58;;;12.90;99.90;;;;;;6250493;28;20053;-77
2022/12/23 10:48:50;;;;;;;2.58;2.38;;;12.90;99.90;;;;;;6249242;28;20046;-78
2022/12/23 10:51:56;;;;;;;4.53;1.67;;;13.00;99.90;;;;;;6257875;28;20050;-77
2022/12/23 10:54:58;;;;;;;1.45;1.27;;;13.00;99.90;;;;;;6266065;28;20105;-77
2022/12/23 10:58:07;;;;;;;1.73;1.10;;;13.00;99.90;;;;;;6262982;28;20046;-78
2022/12/23 11:01:12;;;;;;;2.15;1.73;;;13.10;99.90;;;;;;6251051;28;20450;-78
2022/12/23 11:04:17;;;;;;;4.47;1.35;;;13.20;99.90;;;;;;6250223;28;20487;-78
2022/12/23 11:07:21;;;;;;;5.50;4.65;;;13.20;99.90;;;;;;6249602;28;20050;-78
2022/12/23 11:10:27;;;;;;;2.60;1.20;;;13.20;99.90;;;;;;6249812;28;20061;-78
2022/12/23 11:13:40;;;;;;;3.72;3.28;;;13.20;99.90;;;;;;6250274;28;20057;-78
2022/12/23 11:16:46;;;;;;;1.55;1.13;;;13.20;99.90;;;;;;6249553;28;20053;-78
2022/12/23 11:19:47;;;;;;;3.75;1.10;;;13.20;99.90;;;;;;6248642;28;20049;-78
2022/12/23 11:22:52;;;;;;;2.88;2.38;;;13.30;99.90;;;;;;6249690;28;20051;-78
2022/12/23 11:26:01;;;;;;;4.28;1.20;;;13.30;99.90;;;;;;6250572;28;20056;-78
2022/12/23 11:29:09;;;;;;;2.40;1.30;;;13.40;99.90;;;;;;6248996;28;20458;-78
2022/12/23 11:32:16;;;;;;;0.80;0.80;;;13.30;99.90;;;;;;6249949;28;20052;-77
2022/12/23 11:35:26;;;;;;;1.20;1.10;;;13.30;99.90;;;;;;6249482;28;20053;-77
2022/12/23 11:38:28;;;;;;;3.30;1.00;;;13.30;99.90;;;;;;6247345;28;20053;-78
2022/12/23 11:41:36;;;;;;;0.70;0.50;;;13.30;99.90;;;;;;6249136;28;20065;-78
2022/12/23 11:44:42;;;;;;;2.22;0.82;;;13.30;99.90;;;;;;6251771;28;20053;-78
2022/12/23 11:47:44;;;;;;;0.80;0.80;;;13.30;99.90;;;;;;6253546;28;20037;-77
2022/12/23 11:50:58;;;;;;;23.52;15.82;;;13.30;99.90;;;;;;6254014;28;20048;-78
2022/12/23 11:54:01;;;;;;;2.50;1.08;;;13.30;99.90;;;;;;6254684;28;20060;-78
2022/12/23 11:57:05;;;;;;;6.30;4.30;;;13.30;99.90;;;;;;6254906;28;20049;-78
2022/12/23 12:00:19;;;;;;;22.38;20.52;;;13.40;99.90;;;;;;6252992;28;20054;-78
2022/12/23 12:03:26;;;;;;;8.95;8.15;;;13.50;99.90;;;;;;6269368;28;20033;-77
2022/12/23 12:06:29;;;;;;;1.92;1.23;;;13.50;99.90;;;;;;6270215;28;20037;-78
2022/12/23 12:09:32;;;;;;;6.05;5.53;;;13.50;99.90;;;;;;6254077;28;20045;-78
2022/12/23 12:12:33;;;;;;;2.03;1.60;;;13.50;99.90;;;;;;6253653;28;20041;-78
2022/12/23 12:15:43;;;;;;;7.68;3.75;;;13.50;99.90;;;;;;6253935;28;20052;-78
2022/12/23 12:18:46;;;;;;;1.98;1.60;;;13.50;99.90;;;;;;6253804;28;20140;-78
2022/12/23 12:21:50;;;;;;;4.28;1.60;;;13.50;99.90;;;;;;6253200;28;20049;-77
2022/12/23 12:24:55;;;;;;;1.77;1.67;;;13.50;99.90;;;;;;6254102;28;20049;-78
2022/12/23 12:28:02;;;;;;;2.75;1.60;;;13.50;99.90;;;;;;6252703;28;20068;-77
2022/12/23 12:31:16;;;;;;;6.13;4.63;;;13.50;99.90;;;;;;6251501;28;20052;-77
2022/12/23 12:34:31;;;;;;;2.53;2.33;;;13.50;99.90;;;;;;6250281;28;20103;-77
2022/12/23 12:37:39;;;;;;;1.70;1.60;;;13.60;99.90;;;;;;6250291;28;20053;-77
2022/12/23 12:40:45;;;;;;;5.22;1.52;;;13.50;99.90;;;;;;6249498;28;20045;-77
2022/12/23 12:43:51;;;;;;;2.50;1.48;;;13.60;99.90;;;;;;6251908;28;20045;-78
2022/12/23 12:47:01;;;;;;;1.27;1.15;;;13.60;99.90;;;;;;6252092;28;20045;-78
2022/12/23 12:50:11;;;;;;;1.83;1.30;;;13.60;99.90;;;;;;6248044;28;20324;-77
2022/12/23 12:53:17;;;;;;;2.10;1.30;;;13.60;99.90;;;;;;6251509;28;20049;-78
2022/12/23 12:56:26;;;;;;;2.40;1.38;;;13.60;99.90;;;;;;6252277;28;20060;-77
2022/12/23 12:59:33;;;;;;;1.50;1.38;;;13.60;99.90;;;;;;6251208;28;20041;-77
2022/12/23 13:02:59;;;;;;;3.20;1.25;;;13.60;99.90;;;;;;6252798;28;20056;-77
2022/12/23 13:06:12;;;;;;;1.33;1.20;;;13.60;99.90;;;;;;6252360;28;20489;-77
2022/12/23 13:09:23;;;;;;;2.33;1.10;;;13.60;99.90;;;;;;6252274;28;20050;-78
2022/12/23 13:12:37;;;;;;;1.13;0.90;;;13.60;99.90;;;;;;6253305;28;20046;-78
2022/12/23 13:15:46;;;;;;;1.95;1.08;;;13.60;99.90;;;;;;6251558;28;20057;-78
2022/12/23 13:18:58;;;;;;;2.10;1.20;;;13.60;99.90;;;;;;6249927;28;20046;-77
2022/12/23 13:22:05;;;;;;;2.42;1.25;;;13.70;99.90;;;;;;6249905;28;20063;-77
2022/12/23 13:25:14;;;;;;;1.63;1.25;;;13.60;99.90;;;;;;6250205;28;20049;-77
2022/12/23 13:28:28;;;;;;;1.27;1.17;;;13.60;99.90;;;;;;6249462;28;20180;-77
2022/12/23 13:31:38;;;;;;;3.60;0.70;;;13.70;99.90;;;;;;6250064;28;20056;-77
2022/12/23 13:34:50;;;;;;;1.27;1.00;;;13.70;99.90;;;;;;6252262;28;20423;-78
2022/12/23 13:37:59;;;;;;;1.17;0.80;;;13.70;99.90;;;;;;6250888;28;20053;-77
2022/12/23 13:41:05;;;;;;;3.05;1.55;;;13.70;99.90;;;;;;6249747;28;20064;-77
2022/12/23 13:44:09;;;;;;;3.42;2.75;;;13.70;99.90;;;;;;6251000;28;20042;-77
2022/12/23 13:47:18;;;;;;;2.53;1.15;;;13.60;99.90;;;;;;6249507;28;20049;-77
2022/12/23 13:50:26;;;;;;;15.40;6.13;;;13.60;99.90;;;;;;6248609;28;20045;-77
2022/12/23 13:53:41;;;;;;;1.48;1.00;;;13.50;99.90;;;;;;6249800;28;20054;-76
2022/12/23 13:56:47;;;;;;;1.65;1.25;;;13.40;99.90;;;;;;6248706;28;20061;-77
2022/12/23 13:59:58;;;;;;;11.13;7.45;;;13.40;99.90;;;;;;6247277;28;20046;-77
2022/12/23 14:03:18;;;;;;;2.67;1.58;;;13.40;99.90;;;;;;6248179;28;20053;-75
2022/12/23 14:06:43;;;;;;;3.65;2.42;;;13.40;99.90;;;;;;6247249;28;20052;-75
2022/12/23 14:09:50;;;;;;;2.83;2.47;;;13.40;99.90;;;;;;6247703;28;20487;-76
2022/12/23 14:12:58;;;;;;;1.75;1.30;;;13.50;99.90;;;;;;6248647;28;20056;-75
2022/12/23 14:16:22;;;;;;;6.78;3.80;;;13.50;99.90;;;;;;6247155;28;20057;-76
2022/12/23 14:19:50;;;;;;;1.05;0.90;;;13.50;99.90;;;;;;6247349;28;20427;-76
2022/12/23 14:23:05;;;;;;;2.53;1.20;;;13.50;99.90;;;;;;6248264;28;20041;-76
2022/12/23 14:26:22;;;;;;;2.10;1.30;;;13.50;99.90;;;;;;6247066;28;20049;-76
2022/12/23 14:29:42;;;;;;;1.73;0.90;;;13.50;99.90;;;;;;6247582;28;20064;-76
2022/12/23 14:32:48;;;;;;;4.93;3.53;;;13.50;99.90;;;;;;6247317;28;20048;-77
2022/12/23 14:35:56;;;;;;;25.77;15.30;;;13.60;99.90;;;;;;6248653;28;20050;-76
2022/12/23 14:39:31;;;;;;;25.42;13.30;;;13.60;99.90;;;;;;6248573;28;20088;-76
2022/12/23 14:42:35;;;;;;;2.03;1.75;;;13.60;99.90;;;;;;6247004;28;20052;-76
2022/12/23 14:45:42;;;;;;;2.85;1.08;;;13.60;99.90;;;;;;6247677;28;20094;-76
2022/12/23 14:49:12;;;;;;;5.30;4.00;;;13.60;99.90;;;;;;6247204;28;20056;-76
2022/12/23 14:52:58;;;;;;;1.73;1.63;;;13.60;99.90;;;;;;6247831;28;20056;-76
2022/12/23 14:56:21;;;;;;;2.45;0.95;;;13.60;99.90;;;;;;6247295;28;20053;-76
2022/12/23 14:59:30;;;;;;;3.28;1.90;;;13.70;99.90;;;;;;6246352;28;20045;-75
2022/12/23 15:02:36;;;;;;;3.08;2.75;;;13.70;99.90;;;;;;6247239;28;20422;-76
2022/12/23 15:05:38;;;;;;;2.17;1.65;;;13.80;99.90;;;;;;6247697;28;20440;-76
2022/12/23 15:08:42;;;;;;;1.58;1.05;;;13.70;99.90;;;;;;6246795;28;20529;-77
2022/12/23 15:11:45;;;;;;;3.20;1.50;;;13.70;99.90;;;;;;6247275;28;20049;-77
2022/12/23 15:14:52;;;;;;;1.63;1.35;;;13.70;99.90;;;;;;6246735;28;20259;-77
2022/12/23 15:18:01;;;;;;;1.63;1.13;;;13.80;99.90;;;;;;6246808;28;20049;-76
2022/12/23 15:21:09;;;;;;;5.75;1.42;;;13.80;99.90;;;;;;6247640;28;20045;-77
2022/12/23 15:24:14;;;;;;;;;;;13.80;99.90;;;;;;6261136;22;20046;-82
2022/12/23 15:27:19;;;;;;;1.20;1.10;;;13.80;99.90;;;;;;6230792;28;19922;-79
2022/12/23 15:30:23;;;;;;;2.92;1.50;;;13.80;99.90;;;;;;6232174;28;20360;-79
2022/12/23 15:33:28;;;;;;;3.85;1.92;;;13.80;99.90;;;;;;6234375;28;20053;-78
2022/12/23 15:36:34;;;;;;;7.57;4.80;;;13.80;99.90;;;;;;6247290;28;20155;-78
2022/12/23 15:39:39;;;;;;;6.90;4.63;;;13.80;99.90;;;;;;6247824;28;20041;-77
2022/12/23 15:42:48;;;;;;;3.17;1.05;;;13.80;99.90;;;;;;6245668;28;20533;-77
2022/12/23 15:45:51;;;;;;;6.68;4.32;;;13.80;99.90;;;;;;6246961;28;20721;-77
2022/12/23 15:48:52;;;;;;;1.33;0.77;;;13.80;99.90;;;;;;6247529;28;20068;-77
2022/12/23 15:51:57;;;;;;;6.20;2.20;;;13.80;99.90;;;;;;6246828;28;20655;-77
2022/12/23 15:55:02;;;;;;;0.77;0.77;;;13.80;99.90;;;;;;6247248;28;20053;-78
2022/12/23 15:58:05;;;;;;;19.58;14.18;;;13.80;99.90;;;;;;6247418;28;20059;-78
2022/12/23 16:01:13;;;;;;;10.77;7.97;;;13.80;99.90;;;;;;6246813;28;20409;-76
2022/12/23 16:04:19;;;;;;;2.90;1.77;;;13.80;99.90;;;;;;6246556;28;20042;-76
2022/12/23 16:07:25;;;;;;;1.75;1.58;;;13.80;99.90;;;;;;6245595;28;20277;-77
2022/12/23 16:10:27;;;;;;;1.48;1.00;;;13.80;99.90;;;;;;6246347;28;20041;-77
2022/12/23 16:13:30;;;;;;;1.30;1.08;;;13.80;99.90;;;;;;6246829;28;20053;-77
2022/12/23 16:16:36;;;;;;;1.50;1.10;;;13.70;99.90;;;;;;6245839;28;20057;-77
2022/12/23 16:19:44;;;;;;;1.23;1.08;;;13.70;99.90;;;;;;6245472;28;20518;-77
2022/12/23 16:22:49;;;;;;;2.17;1.42;;;13.80;99.90;;;;;;6246397;28;20073;-77
2022/12/23 16:25:52;;;;;;;1.67;1.33;;;13.70;99.90;;;;;;6246625;28;20049;-77
2022/12/23 16:29:00;;;;;;;1.58;1.13;;;13.70;99.90;;;;;;6246582;28;20048;-78